sensor_id;sensor_type;location;lat;lon;timestamp;pressure;altitude;pressure_sealevel;temperature;humidity
38033;BME280;23841;48.524;1.342;2023-11-22T00:00:08;100118.09;;;11.93;72.49
38033;BME280;23841;48.524;1.342;2023-11-22T00:02:35;100115.44;;;11.93;72.31
38033;BME280;23841;48.524;1.342;2023-11-22T00:05:00;100112.75;;;11.93;72.38
38033;BME280;23841;48.524;1.342;2023-11-22T00:07:26;100117.22;;;11.94;72.22
38033;BME280;23841;48.524;1.342;2023-11-22T00:09:54;100123.41;;;11.93;72.25
38033;BME280;23841;48.524;1.342;2023-11-22T00:12:20;100111.91;;;11.94;72.20
38033;BME280;23841;48.524;1.342;2023-11-22T00:14:45;100125.22;;;11.93;72.35
38033;BME280;23841;48.524;1.342;2023-11-22T00:17:12;100123.41;;;11.93;71.83
38033;BME280;23841;48.524;1.342;2023-11-22T00:19:38;100123.41;;;11.93;72.17
38033;BME280;23841;48.524;1.342;2023-11-22T00:22:04;100120.78;;;11.92;72.21
38033;BME280;23841;48.524;1.342;2023-11-22T00:24:37;100119.03;;;11.89;72.36
38033;BME280;23841;48.524;1.342;2023-11-22T00:27:02;100125.22;;;11.90;72.26
38033;BME280;23841;48.524;1.342;2023-11-22T00:29:28;100131.47;;;11.90;72.28
38033;BME280;23841;48.524;1.342;2023-11-22T00:31:53;100122.56;;;11.90;72.38
38033;BME280;23841;48.524;1.342;2023-11-22T00:34:19;100130.56;;;11.90;72.21
38033;BME280;23841;48.524;1.342;2023-11-22T00:36:44;100128.78;;;11.90;72.16
38033;BME280;23841;48.524;1.342;2023-11-22T00:39:10;100131.47;;;11.89;72.18
38033;BME280;23841;48.524;1.342;2023-11-22T00:41:39;100124.34;;;11.89;72.06
38033;BME280;23841;48.524;1.342;2023-11-22T00:44:05;100123.50;;;11.87;72.20
38033;BME280;23841;48.524;1.342;2023-11-22T00:46:33;100122.63;;;11.87;72.23
38033;BME280;23841;48.524;1.342;2023-11-22T00:48:59;100114.66;;;11.85;72.18
38033;BME280;23841;48.524;1.342;2023-11-22T00:51:25;100118.22;;;11.86;72.35
38033;BME280;23841;48.524;1.342;2023-11-22T00:53:50;100123.53;;;11.84;72.27
38033;BME280;23841;48.524;1.342;2023-11-22T00:56:16;100124.44;;;11.85;72.38
38033;BME280;23841;48.524;1.342;2023-11-22T00:58:42;100124.47;;;11.83;72.18
38033;BME280;23841;48.524;1.342;2023-11-22T01:01:08;100128.91;;;11.81;72.42
38033;BME280;23841;48.524;1.342;2023-11-22T01:03:34;100119.16;;;11.82;72.28
38033;BME280;23841;48.524;1.342;2023-11-22T01:06:01;100120.03;;;11.82;72.29
38033;BME280;23841;48.524;1.342;2023-11-22T01:08:26;100119.16;;;11.80;72.40
38033;BME280;23841;48.524;1.342;2023-11-22T01:10:52;100119.16;;;11.80;72.28
38033;BME280;23841;48.524;1.342;2023-11-22T01:13:17;100126.28;;;11.79;72.28
38033;BME280;23841;48.524;1.342;2023-11-22T01:15:43;100132.50;;;11.78;72.33
38033;BME280;23841;48.524;1.342;2023-11-22T01:18:12;100138.72;;;11.77;72.42
38033;BME280;23841;48.524;1.342;2023-11-22T01:20:37;100132.50;;;11.77;72.35
38033;BME280;23841;48.524;1.342;2023-11-22T01:23:03;100131.63;;;11.76;72.25
38033;BME280;23841;48.524;1.342;2023-11-22T01:25:29;100133.41;;;11.76;72.30
38033;BME280;23841;48.524;1.342;2023-11-22T01:27:54;100137.84;;;11.77;72.14
38033;BME280;23841;48.524;1.342;2023-11-22T01:30:20;100152.91;;;11.78;72.05
38033;BME280;23841;48.524;1.342;2023-11-22T01:32:45;100160.91;;;11.78;72.08
38033;BME280;23841;48.524;1.342;2023-11-22T01:35:11;100164.44;;;11.77;72.05
38033;BME280;23841;48.524;1.342;2023-11-22T01:37:36;100168.00;;;11.76;71.97
38033;BME280;23841;48.524;1.342;2023-11-22T01:40:03;100174.22;;;11.76;71.92
38033;BME280;23841;48.524;1.342;2023-11-22T01:42:29;100176.00;;;11.77;71.99
38033;BME280;23841;48.524;1.342;2023-11-22T01:44:54;100166.25;;;11.76;72.02
38033;BME280;23841;48.524;1.342;2023-11-22T01:47:21;100162.72;;;11.74;71.89
38033;BME280;23841;48.524;1.342;2023-11-22T01:49:47;100169.78;;;11.77;71.96
38033;BME280;23841;48.524;1.342;2023-11-22T01:52:13;100178.66;;;11.76;71.86
38033;BME280;23841;48.524;1.342;2023-11-22T01:54:38;100184.88;;;11.76;72.05
38033;BME280;23841;48.524;1.342;2023-11-22T01:57:05;100177.78;;;11.75;71.89
38033;BME280;23841;48.524;1.342;2023-11-22T01:59:34;100190.22;;;11.76;71.88
38033;BME280;23841;48.524;1.342;2023-11-22T02:02:00;100186.66;;;11.74;71.89
38033;BME280;23841;48.524;1.342;2023-11-22T02:04:25;100179.56;;;11.76;71.80
38033;BME280;23841;48.524;1.342;2023-11-22T02:06:51;100186.63;;;11.76;71.79
38033;BME280;23841;48.524;1.342;2023-11-22T02:09:17;100183.97;;;11.76;71.98
38033;BME280;23841;48.524;1.342;2023-11-22T02:11:44;100183.09;;;11.75;71.71
38033;BME280;23841;48.524;1.342;2023-11-22T02:14:13;100174.25;;;11.75;71.78
38033;BME280;23841;48.524;1.342;2023-11-22T02:16:39;100182.25;;;11.75;71.78
38033;BME280;23841;48.524;1.342;2023-11-22T02:19:06;100171.59;;;11.75;71.88
38033;BME280;23841;48.524;1.342;2023-11-22T02:21:32;100176.03;;;11.74;71.74
38033;BME280;23841;48.524;1.342;2023-11-22T02:23:58;100178.66;;;11.76;71.70
38033;BME280;23841;48.524;1.342;2023-11-22T02:26:23;100179.59;;;11.75;71.76
38033;BME280;23841;48.524;1.342;2023-11-22T02:28:50;100176.03;;;11.74;71.74
38033;BME280;23841;48.524;1.342;2023-11-22T02:31:16;100174.25;;;11.75;71.69
38033;BME280;23841;48.524;1.342;2023-11-22T02:33:41;100177.78;;;11.75;71.70
38033;BME280;23841;48.524;1.342;2023-11-22T02:36:07;100178.66;;;11.76;71.54
38033;BME280;23841;48.524;1.342;2023-11-22T02:38:33;100174.25;;;11.75;71.59
38033;BME280;23841;48.524;1.342;2023-11-22T02:41:01;100183.97;;;11.76;71.64
38033;BME280;23841;48.524;1.342;2023-11-22T02:43:26;100187.56;;;11.75;71.54
38033;BME280;23841;48.524;1.342;2023-11-22T02:45:51;100187.56;;;11.75;71.51
38033;BME280;23841;48.524;1.342;2023-11-22T02:48:17;100192.88;;;11.75;71.52
38033;BME280;23841;48.524;1.342;2023-11-22T02:50:43;100194.63;;;11.76;71.46
38033;BME280;23841;48.524;1.342;2023-11-22T02:53:09;100197.28;;;11.76;71.38
38033;BME280;23841;48.524;1.342;2023-11-22T02:55:35;100197.31;;;11.74;71.50
38033;BME280;23841;48.524;1.342;2023-11-22T02:58:00;100198.22;;;11.75;71.49
38033;BME280;23841;48.524;1.342;2023-11-22T03:00:27;100195.56;;;11.75;71.38
38033;BME280;23841;48.524;1.342;2023-11-22T03:02:55;100201.78;;;11.74;71.41
38033;BME280;23841;48.524;1.342;2023-11-22T03:05:21;100209.72;;;11.75;71.27
38033;BME280;23841;48.524;1.342;2023-11-22T03:07:47;100206.22;;;11.73;71.39
38033;BME280;23841;48.524;1.342;2023-11-22T03:10:13;100209.75;;;11.74;71.30
38033;BME280;23841;48.524;1.342;2023-11-22T03:12:39;100210.63;;;11.74;71.31
38033;BME280;23841;48.524;1.342;2023-11-22T03:15:05;100208.88;;;11.73;71.30
38033;BME280;23841;48.524;1.342;2023-11-22T03:17:31;100217.72;;;11.75;71.31
38033;BME280;23841;48.524;1.342;2023-11-22T03:19:58;100219.47;;;11.76;71.19
38033;BME280;23841;48.524;1.342;2023-11-22T03:22:27;100217.72;;;11.75;71.10
38033;BME280;23841;48.524;1.342;2023-11-22T03:24:56;100214.16;;;11.76;71.09
38033;BME280;23841;48.524;1.342;2023-11-22T03:27:21;100223.91;;;11.76;71.10
38033;BME280;23841;48.524;1.342;2023-11-22T03:29:48;100222.19;;;11.73;71.07
38033;BME280;23841;48.524;1.342;2023-11-22T03:32:14;100230.16;;;11.75;71.01
38033;BME280;23841;48.524;1.342;2023-11-22T03:34:39;100223.94;;;11.74;70.84
38033;BME280;23841;48.524;1.342;2023-11-22T03:37:04;100223.94;;;11.74;70.93
38033;BME280;23841;48.524;1.342;2023-11-22T03:39:30;100228.38;;;11.74;70.92
38033;BME280;23841;48.524;1.342;2023-11-22T03:41:55;100237.22;;;11.76;70.81
38033;BME280;23841;48.524;1.342;2023-11-22T03:44:22;100239.88;;;11.76;70.90
38033;BME280;23841;48.524;1.342;2023-11-22T03:46:47;100235.47;;;11.76;70.62
38033;BME280;23841;48.524;1.342;2023-11-22T03:49:13;100245.22;;;11.76;70.62
38033;BME280;23841;48.524;1.342;2023-11-22T03:51:41;100257.66;;;11.75;70.44
38033;BME280;23841;48.524;1.342;2023-11-22T03:54:07;100250.56;;;11.73;70.40
38033;BME280;23841;48.524;1.342;2023-11-22T03:56:32;100250.59;;;11.71;70.32
38033;BME280;23841;48.524;1.342;2023-11-22T03:58:58;100255.03;;;11.71;70.19
38033;BME280;23841;48.524;1.342;2023-11-22T04:01:24;100258.59;;;11.70;70.10
38033;BME280;23841;48.524;1.342;2023-11-22T04:03:49;100257.72;;;11.69;69.97
38033;BME280;23841;48.524;1.342;2023-11-22T04:06:16;100272.78;;;11.69;69.93
38033;BME280;23841;48.524;1.342;2023-11-22T04:08:45;100278.13;;;11.67;69.83
38033;BME280;23841;48.524;1.342;2023-11-22T04:11:11;100274.59;;;11.67;69.68
38033;BME280;23841;48.524;1.342;2023-11-22T04:13:49;100275.53;;;11.64;69.54
38033;BME280;23841;48.524;1.342;2023-11-22T04:16:14;100272.88;;;11.63;69.45
38033;BME280;23841;48.524;1.342;2023-11-22T04:18:40;100278.19;;;11.63;69.26
38033;BME280;23841;48.524;1.342;2023-11-22T04:21:07;100279.97;;;11.60;69.27
38033;BME280;23841;48.524;1.342;2023-11-22T04:23:32;100278.25;;;11.59;69.23
38033;BME280;23841;48.524;1.342;2023-11-22T04:25:59;100277.34;;;11.59;69.18
38033;BME280;23841;48.524;1.342;2023-11-22T04:28:26;100278.25;;;11.58;68.98
38033;BME280;23841;48.524;1.342;2023-11-22T04:30:52;100272.91;;;11.56;68.93
38033;BME280;23841;48.524;1.342;2023-11-22T04:33:18;100273.84;;;11.55;68.87
38033;BME280;23841;48.524;1.342;2023-11-22T04:35:43;100277.41;;;11.54;68.96
38033;BME280;23841;48.524;1.342;2023-11-22T04:38:09;100279.19;;;11.54;68.66
38033;BME280;23841;48.524;1.342;2023-11-22T04:40:35;100282.75;;;11.51;68.74
38033;BME280;23841;48.524;1.342;2023-11-22T04:43:00;100284.50;;;11.51;68.53
38033;BME280;23841;48.524;1.342;2023-11-22T04:45:25;100284.53;;;11.49;68.38
38033;BME280;23841;48.524;1.342;2023-11-22T04:47:51;100282.78;;;11.50;68.38
38033;BME280;23841;48.524;1.342;2023-11-22T04:50:17;100281.88;;;11.49;68.25
38033;BME280;23841;48.524;1.342;2023-11-22T04:52:42;100294.31;;;11.47;68.22
38033;BME280;23841;48.524;1.342;2023-11-22T04:55:08;100303.19;;;11.46;68.07
38033;BME280;23841;48.524;1.342;2023-11-22T04:57:34;100302.31;;;11.42;67.99
38033;BME280;23841;48.524;1.342;2023-11-22T04:59:59;100305.00;;;11.42;67.85
38033;BME280;23841;48.524;1.342;2023-11-22T05:02:26;100303.25;;;11.40;67.88
38033;BME280;23841;48.524;1.342;2023-11-22T05:04:52;100308.59;;;11.40;67.80
38033;BME280;23841;48.524;1.342;2023-11-22T05:07:17;100321.00;;;11.38;67.58
38033;BME280;23841;48.524;1.342;2023-11-22T05:09:44;100326.31;;;11.38;67.67
38033;BME280;23841;48.524;1.342;2023-11-22T05:12:10;100330.78;;;11.36;67.45
38033;BME280;23841;48.524;1.342;2023-11-22T05:14:37;100325.44;;;11.34;67.44
38033;BME280;23841;48.524;1.342;2023-11-22T05:17:04;100335.22;;;11.34;67.21
38033;BME280;23841;48.524;1.342;2023-11-22T05:19:30;100331.72;;;11.32;67.19
38033;BME280;23841;48.524;1.342;2023-11-22T05:21:56;100339.69;;;11.28;67.50
38033;BME280;23841;48.524;1.342;2023-11-22T05:24:22;100331.72;;;11.28;67.30
38033;BME280;23841;48.524;1.342;2023-11-22T05:26:47;100333.50;;;11.26;67.26
38033;BME280;23841;48.524;1.342;2023-11-22T05:29:13;100335.28;;;11.27;66.91
38033;BME280;23841;48.524;1.342;2023-11-22T05:31:38;100343.28;;;11.26;67.16
38033;BME280;23841;48.524;1.342;2023-11-22T05:34:04;100343.25;;;11.24;67.04
38033;BME280;23841;48.524;1.342;2023-11-22T05:36:29;100345.94;;;11.24;66.74
38033;BME280;23841;48.524;1.342;2023-11-22T05:38:55;100358.38;;;11.22;66.67
38033;BME280;23841;48.524;1.342;2023-11-22T05:41:24;100361.94;;;11.18;66.72
38033;BME280;23841;48.524;1.342;2023-11-22T05:43:51;100362.81;;;11.19;66.51
38033;BME280;23841;48.524;1.342;2023-11-22T05:46:17;100358.44;;;11.16;66.53
38033;BME280;23841;48.524;1.342;2023-11-22T05:48:49;100363.75;;;11.16;66.36
38033;BME280;23841;48.524;1.342;2023-11-22T05:51:16;100375.28;;;11.15;66.72
38033;BME280;23841;48.524;1.342;2023-11-22T05:53:41;100373.50;;;11.16;66.36
38033;BME280;23841;48.524;1.342;2023-11-22T05:56:06;100383.25;;;11.15;66.42
38033;BME280;23841;48.524;1.342;2023-11-22T05:58:34;100384.13;;;11.14;66.11
38033;BME280;23841;48.524;1.342;2023-11-22T06:01:06;100380.63;;;11.12;66.03
38033;BME280;23841;48.524;1.342;2023-11-22T06:03:32;100383.28;;;11.12;65.98
38033;BME280;23841;48.524;1.342;2023-11-22T06:05:58;100393.03;;;11.10;65.95
38033;BME280;23841;48.524;1.342;2023-11-22T06:08:24;100404.56;;;11.09;65.86
38033;BME280;23841;48.524;1.342;2023-11-22T06:10:49;100406.38;;;11.05;65.96
38033;BME280;23841;48.524;1.342;2023-11-22T06:13:15;100407.25;;;11.03;65.75
38033;BME280;23841;48.524;1.342;2023-11-22T06:15:41;100398.41;;;11.04;65.62
38033;BME280;23841;48.524;1.342;2023-11-22T06:18:06;100411.69;;;11.01;65.42
38033;BME280;23841;48.524;1.342;2023-11-22T06:20:32;100413.50;;;10.99;65.28
38033;BME280;23841;48.524;1.342;2023-11-22T06:22:58;100418.81;;;10.96;65.07
38033;BME280;23841;48.524;1.342;2023-11-22T06:25:23;100426.81;;;10.96;64.83
38033;BME280;23841;48.524;1.342;2023-11-22T06:27:49;100426.84;;;10.92;64.87
38033;BME280;23841;48.524;1.342;2023-11-22T06:30:14;100435.69;;;10.93;64.74
38033;BME280;23841;48.524;1.342;2023-11-22T06:32:40;100428.59;;;10.90;64.67
38033;BME280;23841;48.524;1.342;2023-11-22T06:35:08;100432.16;;;10.88;64.58
38033;BME280;23841;48.524;1.342;2023-11-22T06:37:34;100424.19;;;10.86;64.66
38033;BME280;23841;48.524;1.342;2023-11-22T06:39:59;100427.72;;;10.85;64.52
38033;BME280;23841;48.524;1.342;2023-11-22T06:42:25;100425.06;;;10.85;64.45
38033;BME280;23841;48.524;1.342;2023-11-22T06:44:52;100429.50;;;10.85;64.47
38033;BME280;23841;48.524;1.342;2023-11-22T06:47:18;100432.16;;;10.85;64.39
38033;BME280;23841;48.524;1.342;2023-11-22T06:49:44;100437.50;;;10.83;64.44
38033;BME280;23841;48.524;1.342;2023-11-22T06:52:10;100434.84;;;10.83;64.40
38033;BME280;23841;48.524;1.342;2023-11-22T06:54:35;100444.56;;;10.81;64.09
38033;BME280;23841;48.524;1.342;2023-11-22T06:57:02;100442.81;;;10.77;63.89
38033;BME280;23841;48.524;1.342;2023-11-22T06:59:28;100448.16;;;10.74;63.80
38033;BME280;23841;48.524;1.342;2023-11-22T07:01:54;100452.63;;;10.72;63.71
38033;BME280;23841;48.524;1.342;2023-11-22T07:04:21;100458.81;;;10.72;63.77
38033;BME280;23841;48.524;1.342;2023-11-22T07:06:48;100463.25;;;10.72;63.72
38033;BME280;23841;48.524;1.342;2023-11-22T07:09:14;100461.47;;;10.69;63.68
38033;BME280;23841;48.524;1.342;2023-11-22T07:11:40;100462.34;;;10.68;63.70
38033;BME280;23841;48.524;1.342;2023-11-22T07:14:05;100459.69;;;10.68;63.62
38033;BME280;23841;48.524;1.342;2023-11-22T07:16:33;100465.00;;;10.68;63.74
38033;BME280;23841;48.524;1.342;2023-11-22T07:19:00;100473.88;;;10.66;63.54
38033;BME280;23841;48.524;1.342;2023-11-22T07:21:28;100472.13;;;10.65;63.69
38033;BME280;23841;48.524;1.342;2023-11-22T07:23:55;100480.09;;;10.66;63.90
38033;BME280;23841;48.524;1.342;2023-11-22T07:26:21;100504.88;;;10.68;63.95
38033;BME280;23841;48.524;1.342;2023-11-22T07:28:46;100519.06;;;10.72;63.91
38033;BME280;23841;48.524;1.342;2023-11-22T07:31:12;100521.72;;;10.72;64.15
38033;BME280;23841;48.524;1.342;2023-11-22T07:33:37;100519.94;;;10.71;64.43
38033;BME280;23841;48.524;1.342;2023-11-22T07:36:04;100515.50;;;10.71;64.53
38033;BME280;23841;48.524;1.342;2023-11-22T07:38:30;100520.81;;;10.74;64.70
38033;BME280;23841;48.524;1.342;2023-11-22T07:40:56;100527.91;;;10.74;65.03
38033;BME280;23841;48.524;1.342;2023-11-22T07:43:22;100522.56;;;10.74;65.08
38033;BME280;23841;48.524;1.342;2023-11-22T07:45:48;100509.28;;;10.75;65.15
38033;BME280;23841;48.524;1.342;2023-11-22T07:48:17;100511.94;;;10.77;65.18
38033;BME280;23841;48.524;1.342;2023-11-22T07:50:43;100514.63;;;10.79;65.25
38033;BME280;23841;48.524;1.342;2023-11-22T07:53:09;100519.03;;;10.80;65.36
38033;BME280;23841;48.524;1.342;2023-11-22T07:55:37;100519.91;;;10.80;65.41
38033;BME280;23841;48.524;1.342;2023-11-22T07:58:03;100529.63;;;10.81;65.57
38033;BME280;23841;48.524;1.342;2023-11-22T08:00:28;100532.28;;;10.81;65.51
38033;BME280;23841;48.524;1.342;2023-11-22T08:02:55;100530.56;;;10.80;65.62
38033;BME280;23841;48.524;1.342;2023-11-22T08:05:20;100536.75;;;10.81;65.29
38033;BME280;23841;48.524;1.342;2023-11-22T08:07:48;100531.44;;;10.81;65.27
38033;BME280;23841;48.524;1.342;2023-11-22T08:10:14;100535.88;;;10.80;65.17
38033;BME280;23841;48.524;1.342;2023-11-22T08:12:46;100537.63;;;10.80;65.12
38033;BME280;23841;48.524;1.342;2023-11-22T08:15:14;100527.00;;;10.78;65.27
38033;BME280;23841;48.524;1.342;2023-11-22T08:17:42;100536.75;;;10.79;65.18
38033;BME280;23841;48.524;1.342;2023-11-22T08:20:10;100528.78;;;10.79;65.05
38033;BME280;23841;48.524;1.342;2023-11-22T08:22:41;100529.66;;;10.80;65.19
38033;BME280;23841;48.524;1.342;2023-11-22T08:25:08;100529.66;;;10.80;65.46
38033;BME280;23841;48.524;1.342;2023-11-22T08:27:33;100535.84;;;10.82;65.11
38033;BME280;23841;48.524;1.342;2023-11-22T08:29:59;100534.97;;;10.80;64.98
38033;BME280;23841;48.524;1.342;2023-11-22T08:32:30;100536.75;;;10.79;65.00
38033;BME280;23841;48.524;1.342;2023-11-22T08:34:56;100540.28;;;10.80;64.77
38033;BME280;23841;48.524;1.342;2023-11-22T08:37:22;100545.59;;;10.78;64.87
38033;BME280;23841;48.524;1.342;2023-11-22T08:39:47;100549.16;;;10.77;64.55
38033;BME280;23841;48.524;1.342;2023-11-22T08:42:14;100551.81;;;10.77;64.54
38033;BME280;23841;48.524;1.342;2023-11-22T08:44:40;100551.81;;;10.74;64.56
38033;BME280;23841;48.524;1.342;2023-11-22T08:47:06;100567.75;;;10.74;64.43
38033;BME280;23841;48.524;1.342;2023-11-22T08:49:33;100559.78;;;10.72;64.31
38033;BME280;23841;48.524;1.342;2023-11-22T08:51:59;100572.22;;;10.70;64.19
38033;BME280;23841;48.524;1.342;2023-11-22T08:54:25;100579.28;;;10.68;64.13
38033;BME280;23841;48.524;1.342;2023-11-22T08:56:54;100592.56;;;10.70;64.26
38033;BME280;23841;48.524;1.342;2023-11-22T08:59:22;100585.47;;;10.69;64.08
38033;BME280;23841;48.524;1.342;2023-11-22T09:01:47;100598.78;;;10.69;64.06
38033;BME280;23841;48.524;1.342;2023-11-22T09:04:13;100594.38;;;10.68;64.14
38033;BME280;23841;48.524;1.342;2023-11-22T09:06:39;100584.63;;;10.67;63.95
38033;BME280;23841;48.524;1.342;2023-11-22T09:09:04;100588.16;;;10.67;63.88
38033;BME280;23841;48.524;1.342;2023-11-22T09:11:31;100589.94;;;10.65;63.82
38033;BME280;23841;48.524;1.342;2023-11-22T09:13:57;100579.31;;;10.64;64.01
38033;BME280;23841;48.524;1.342;2023-11-22T09:16:23;100592.59;;;10.67;63.96
38033;BME280;23841;48.524;1.342;2023-11-22T09:18:50;100578.44;;;10.66;64.31
38033;BME280;23841;48.524;1.342;2023-11-22T09:21:16;100579.31;;;10.65;63.90
38033;BME280;23841;48.524;1.342;2023-11-22T09:23:42;100579.31;;;10.64;63.97
38033;BME280;23841;48.524;1.342;2023-11-22T09:26:08;100583.75;;;10.65;63.98
38033;BME280;23841;48.524;1.342;2023-11-22T09:28:34;100583.75;;;10.65;64.16
38033;BME280;23841;48.524;1.342;2023-11-22T09:30:59;100587.28;;;10.64;64.11
38033;BME280;23841;48.524;1.342;2023-11-22T09:33:31;100584.63;;;10.64;64.19
38033;BME280;23841;48.524;1.342;2023-11-22T09:35:57;100589.03;;;10.63;64.16
38033;BME280;23841;48.524;1.342;2023-11-22T09:38:23;100589.94;;;10.64;64.02
38033;BME280;23841;48.524;1.342;2023-11-22T09:40:49;100590.81;;;10.66;63.90
38033;BME280;23841;48.524;1.342;2023-11-22T09:43:16;100589.06;;;10.65;64.17
38033;BME280;23841;48.524;1.342;2023-11-22T09:45:49;100593.47;;;10.66;64.12
38033;BME280;23841;48.524;1.342;2023-11-22T09:48:16;100586.41;;;10.65;64.31
38033;BME280;23841;48.524;1.342;2023-11-22T09:50:54;100596.13;;;10.66;64.30
38033;BME280;23841;48.524;1.342;2023-11-22T09:56:09;100590.81;;;10.66;64.29
38033;BME280;23841;48.524;1.342;2023-11-22T09:58:38;100600.56;;;10.67;64.33
38033;BME280;23841;48.524;1.342;2023-11-22T10:01:05;100605.00;;;10.68;64.34
38033;BME280;23841;48.524;1.342;2023-11-22T10:03:33;100610.31;;;10.68;64.44
38033;BME280;23841;48.524;1.342;2023-11-22T10:05:59;100608.53;;;10.67;64.37
38033;BME280;23841;48.524;1.342;2023-11-22T10:08:27;100616.50;;;10.68;64.39
38033;BME280;23841;48.524;1.342;2023-11-22T10:10:56;100628.00;;;10.69;64.27
38033;BME280;23841;48.524;1.342;2023-11-22T10:13:22;100620.03;;;10.69;64.48
38033;BME280;23841;48.524;1.342;2023-11-22T10:15:49;100621.81;;;10.70;64.62
38033;BME280;23841;48.524;1.342;2023-11-22T10:18:14;100617.41;;;10.73;65.07
38033;BME280;23841;48.524;1.342;2023-11-22T10:20:41;100626.25;;;10.74;65.18
38033;BME280;23841;48.524;1.342;2023-11-22T10:23:11;100622.69;;;10.76;65.22
38033;BME280;23841;48.524;1.342;2023-11-22T10:25:43;100620.91;;;10.77;65.51
38033;BME280;23841;48.524;1.342;2023-11-22T10:28:09;100617.38;;;10.78;65.23
38033;BME280;23841;48.524;1.342;2023-11-22T10:30:34;100621.81;;;10.79;65.55
38033;BME280;23841;48.524;1.342;2023-11-22T10:33:02;100621.81;;;10.81;65.56
38033;BME280;23841;48.524;1.342;2023-11-22T10:35:27;100617.38;;;10.81;65.70
38033;BME280;23841;48.524;1.342;2023-11-22T10:37:53;100628.00;;;10.83;65.80
38033;BME280;23841;48.524;1.342;2023-11-22T10:40:18;100630.69;;;10.84;65.84
38033;BME280;23841;48.524;1.342;2023-11-22T10:42:48;100627.13;;;10.84;66.01
38033;BME280;23841;48.524;1.342;2023-11-22T10:45:17;100631.56;;;10.83;65.83
38033;BME280;23841;48.524;1.342;2023-11-22T10:47:43;100636.88;;;10.83;65.75
38033;BME280;23841;48.524;1.342;2023-11-22T10:50:09;100636.00;;;10.84;65.86
38033;BME280;23841;48.524;1.342;2023-11-22T10:52:36;100638.66;;;10.86;65.96
38033;BME280;23841;48.524;1.342;2023-11-22T10:55:05;100651.03;;;10.85;65.81
38033;BME280;23841;48.524;1.342;2023-11-22T10:57:40;100651.03;;;10.85;65.92
38033;BME280;23841;48.524;1.342;2023-11-22T11:00:07;100659.00;;;10.87;65.81
38033;BME280;23841;48.524;1.342;2023-11-22T11:02:41;100660.78;;;10.85;65.75
38033;BME280;23841;48.524;1.342;2023-11-22T11:05:15;100666.97;;;10.85;65.66
38033;BME280;23841;48.524;1.342;2023-11-22T11:07:48;100674.94;;;10.87;66.00
38033;BME280;23841;48.524;1.342;2023-11-22T11:10:15;100674.94;;;10.87;65.68
38033;BME280;23841;48.524;1.342;2023-11-22T11:12:41;100669.63;;;10.87;65.83
38033;BME280;23841;48.524;1.342;2023-11-22T11:15:08;100668.75;;;10.86;66.06
38033;BME280;23841;48.524;1.342;2023-11-22T11:17:35;100666.09;;;10.88;65.87
38033;BME280;23841;48.524;1.342;2023-11-22T11:20:04;100654.59;;;10.87;65.94
38033;BME280;23841;48.524;1.342;2023-11-22T11:22:31;100651.94;;;10.89;66.13
38033;BME280;23841;48.524;1.342;2023-11-22T11:25:02;100644.81;;;10.89;66.41
38033;BME280;23841;48.524;1.342;2023-11-22T11:27:33;100656.34;;;10.91;66.50
38033;BME280;23841;48.524;1.342;2023-11-22T11:29:58;100638.63;;;10.90;66.43
38033;BME280;23841;48.524;1.342;2023-11-22T11:32:31;100639.50;;;10.91;66.37
38033;BME280;23841;48.524;1.342;2023-11-22T11:35:08;100630.66;;;10.90;66.45
38033;BME280;23841;48.524;1.342;2023-11-22T11:37:33;100645.72;;;10.91;66.40
38033;BME280;23841;48.524;1.342;2023-11-22T11:39:59;100642.19;;;10.92;66.13
38033;BME280;23841;48.524;1.342;2023-11-22T11:42:24;100646.59;;;10.92;66.37
38033;BME280;23841;48.524;1.342;2023-11-22T11:47:24;100609.38;;;10.90;66.02
38033;BME280;23841;48.524;1.342;2023-11-22T11:49:49;100599.63;;;10.91;66.12
38033;BME280;23841;48.524;1.342;2023-11-22T11:52:18;100588.09;;;10.93;66.12
38033;BME280;23841;48.524;1.342;2023-11-22T11:54:44;100578.38;;;10.92;66.37
38033;BME280;23841;48.524;1.342;2023-11-22T11:57:10;100573.06;;;10.92;66.46
38033;BME280;23841;48.524;1.342;2023-11-22T11:59:35;100576.59;;;10.95;66.58
38033;BME280;23841;48.524;1.342;2023-11-22T12:02:01;100588.09;;;10.95;66.57
38033;BME280;23841;48.524;1.342;2023-11-22T12:04:27;100579.25;;;10.95;66.42
38033;BME280;23841;48.524;1.342;2023-11-22T12:06:52;100585.41;;;10.97;66.49
38033;BME280;23841;48.524;1.342;2023-11-22T12:09:27;100591.66;;;10.97;66.66
38033;BME280;23841;48.524;1.342;2023-11-22T12:11:55;100612.03;;;10.98;66.69
38033;BME280;23841;48.524;1.342;2023-11-22T12:14:22;100633.28;;;10.97;66.52
38033;BME280;23841;48.524;1.342;2023-11-22T12:16:50;100627.97;;;10.97;66.42
38033;BME280;23841;48.524;1.342;2023-11-22T12:19:27;100640.38;;;10.98;66.43
38033;BME280;23841;48.524;1.342;2023-11-22T12:21:53;100636.84;;;10.97;66.41
38033;BME280;23841;48.524;1.342;2023-11-22T12:24:19;100641.25;;;10.97;66.29
38033;BME280;23841;48.524;1.342;2023-11-22T12:26:46;100643.91;;;10.97;66.20
38033;BME280;23841;48.524;1.342;2023-11-22T12:29:15;100643.91;;;10.97;65.79
38033;BME280;23841;48.524;1.342;2023-11-22T12:31:48;100643.03;;;10.96;65.86
38033;BME280;23841;48.524;1.342;2023-11-22T12:34:18;100636.84;;;10.96;65.85
38033;BME280;23841;48.524;1.342;2023-11-22T12:36:46;100629.75;;;10.95;66.01
38033;BME280;23841;48.524;1.342;2023-11-22T12:39:15;100638.59;;;10.97;66.09
38033;BME280;23841;48.524;1.342;2023-11-22T12:41:45;100642.19;;;10.96;66.08
38033;BME280;23841;48.524;1.342;2023-11-22T12:44:11;100647.50;;;10.96;66.13
38033;BME280;23841;48.524;1.342;2023-11-22T12:46:52;100653.69;;;10.98;66.02
38033;BME280;23841;48.524;1.342;2023-11-22T12:49:27;100652.81;;;10.96;65.73
38033;BME280;23841;48.524;1.342;2023-11-22T12:51:54;100643.06;;;10.93;65.90